sensor_id;sensor_type;location;lat;lon;timestamp;P1;durP1;ratioP1;P2;durP2;ratioP2
50056;SDS011;36875;49.468;11.200;2023-02-20T00:00:27;3.65;;;1.75;;
50056;SDS011;36875;49.468;11.200;2023-02-20T00:02:55;2.60;;;1.65;;
50056;SDS011;36875;49.468;11.200;2023-02-20T00:05:20;4.05;;;1.98;;
50056;SDS011;36875;49.468;11.200;2023-02-20T00:07:47;4.95;;;1.90;;
50056;SDS011;36875;49.468;11.200;2023-02-20T00:10:13;3.95;;;1.70;;
50056;SDS011;36875;49.468;11.200;2023-02-20T00:12:40;5.05;;;2.15;;
50056;SDS011;36875;49.468;11.200;2023-02-20T00:15:06;4.22;;;1.58;;
50056;SDS011;36875;49.468;11.200;2023-02-20T00:17:32;3.67;;;1.60;;
50056;SDS011;36875;49.468;11.200;2023-02-20T00:19:58;2.83;;;1.52;;
50056;SDS011;36875;49.468;11.200;2023-02-20T00:22:24;3.05;;;1.58;;
50056;SDS011;36875;49.468;11.200;2023-02-20T00:24:54;2.60;;;1.40;;
50056;SDS011;36875;49.468;11.200;2023-02-20T00:27:19;3.95;;;1.60;;
50056;SDS011;36875;49.468;11.200;2023-02-20T00:29:45;3.60;;;1.58;;
50056;SDS011;36875;49.468;11.200;2023-02-20T00:32:11;3.58;;;1.63;;
50056;SDS011;36875;49.468;11.200;2023-02-20T00:34:37;3.05;;;1.50;;
50056;SDS011;36875;49.468;11.200;2023-02-20T00:37:03;2.63;;;1.50;;
50056;SDS011;36875;49.468;11.200;2023-02-20T00:39:28;3.47;;;1.40;;
50056;SDS011;36875;49.468;11.200;2023-02-20T00:41:56;2.42;;;1.38;;
50056;SDS011;36875;49.468;11.200;2023-02-20T00:44:23;2.42;;;1.42;;
50056;SDS011;36875;49.468;11.200;2023-02-20T00:46:48;2.13;;;1.27;;
50056;SDS011;36875;49.468;11.200;2023-02-20T00:49:14;4.57;;;2.13;;
50056;SDS011;36875;49.468;11.200;2023-02-20T00:51:39;2.33;;;1.30;;
50056;SDS011;36875;49.468;11.200;2023-02-20T00:54:05;3.80;;;1.52;;
50056;SDS011;36875;49.468;11.200;2023-02-20T00:56:31;2.55;;;1.50;;
50056;SDS011;36875;49.468;11.200;2023-02-20T00:58:57;2.33;;;1.30;;
50056;SDS011;36875;49.468;11.200;2023-02-20T01:01:23;4.38;;;1.48;;
50056;SDS011;36875;49.468;11.200;2023-02-20T01:03:49;2.20;;;1.20;;
50056;SDS011;36875;49.468;11.200;2023-02-20T01:06:14;3.03;;;1.42;;
50056;SDS011;36875;49.468;11.200;2023-02-20T01:08:40;2.95;;;1.40;;
50056;SDS011;36875;49.468;11.200;2023-02-20T01:11:06;2.45;;;1.30;;
50056;SDS011;36875;49.468;11.200;2023-02-20T01:13:31;3.28;;;1.40;;
50056;SDS011;36875;49.468;11.200;2023-02-20T01:15:58;4.55;;;1.30;;
50056;SDS011;36875;49.468;11.200;2023-02-20T01:18:23;3.55;;;1.52;;
50056;SDS011;36875;49.468;11.200;2023-02-20T01:20:49;3.97;;;1.40;;
50056;SDS011;36875;49.468;11.200;2023-02-20T01:23:14;2.90;;;1.10;;
50056;SDS011;36875;49.468;11.200;2023-02-20T01:25:40;1.90;;;1.10;;
50056;SDS011;36875;49.468;11.200;2023-02-20T01:28:05;1.98;;;1.20;;
50056;SDS011;36875;49.468;11.200;2023-02-20T01:30:31;2.85;;;1.25;;
50056;SDS011;36875;49.468;11.200;2023-02-20T01:32:58;1.73;;;0.90;;
50056;SDS011;36875;49.468;11.200;2023-02-20T01:35:23;4.60;;;1.23;;
50056;SDS011;36875;49.468;11.200;2023-02-20T01:37:49;2.65;;;1.30;;
50056;SDS011;36875;49.468;11.200;2023-02-20T01:40:15;2.38;;;1.38;;
50056;SDS011;36875;49.468;11.200;2023-02-20T01:42:42;1.77;;;1.27;;
50056;SDS011;36875;49.468;11.200;2023-02-20T01:45:14;2.85;;;1.25;;
50056;SDS011;36875;49.468;11.200;2023-02-20T01:47:41;1.50;;;1.05;;
50056;SDS011;36875;49.468;11.200;2023-02-20T01:50:08;2.22;;;1.08;;
50056;SDS011;36875;49.468;11.200;2023-02-20T01:52:34;1.98;;;1.17;;
50056;SDS011;36875;49.468;11.200;2023-02-20T01:55:00;2.78;;;1.00;;
50056;SDS011;36875;49.468;11.200;2023-02-20T01:57:30;2.63;;;1.30;;
50056;SDS011;36875;49.468;11.200;2023-02-20T01:59:59;2.42;;;1.20;;
50056;SDS011;36875;49.468;11.200;2023-02-20T02:02:30;2.55;;;1.50;;
50056;SDS011;36875;49.468;11.200;2023-02-20T02:04:59;1.60;;;1.05;;
50056;SDS011;36875;49.468;11.200;2023-02-20T02:07:27;2.25;;;1.10;;
50056;SDS011;36875;49.468;11.200;2023-02-20T02:09:54;4.25;;;1.05;;
50056;SDS011;36875;49.468;11.200;2023-02-20T02:12:24;1.92;;;1.30;;
50056;SDS011;36875;49.468;11.200;2023-02-20T02:14:49;2.40;;;1.10;;
50056;SDS011;36875;49.468;11.200;2023-02-20T02:17:19;2.45;;;1.10;;
50056;SDS011;36875;49.468;11.200;2023-02-20T02:20:04;1.90;;;0.90;;
50056;SDS011;36875;49.468;11.200;2023-02-20T02:25:59;2.38;;;1.02;;
50056;SDS011;36875;49.468;11.200;2023-02-20T02:28:43;2.85;;;1.30;;
50056;SDS011;36875;49.468;11.200;2023-02-20T02:31:36;1.52;;;1.00;;
50056;SDS011;36875;49.468;11.200;2023-02-20T02:37:32;1.70;;;1.02;;
50056;SDS011;36875;49.468;11.200;2023-02-20T02:40:05;2.38;;;1.20;;
50056;SDS011;36875;49.468;11.200;2023-02-20T02:42:39;1.67;;;1.02;;
50056;SDS011;36875;49.468;11.200;2023-02-20T02:45:09;1.25;;;0.90;;
50056;SDS011;36875;49.468;11.200;2023-02-20T02:47:40;2.75;;;1.00;;
50056;SDS011;36875;49.468;11.200;2023-02-20T02:50:14;3.72;;;1.02;;
50056;SDS011;36875;49.468;11.200;2023-02-20T02:52:43;2.70;;;0.93;;
50056;SDS011;36875;49.468;11.200;2023-02-20T02:55:14;1.88;;;1.00;;
50056;SDS011;36875;49.468;11.200;2023-02-20T02:57:42;1.58;;;0.90;;
50056;SDS011;36875;49.468;11.200;2023-02-20T03:00:08;2.13;;;1.08;;
50056;SDS011;36875;49.468;11.200;2023-02-20T03:02:37;1.35;;;0.80;;
50056;SDS011;36875;49.468;11.200;2023-02-20T03:05:09;1.90;;;1.00;;
50056;SDS011;36875;49.468;11.200;2023-02-20T03:07:38;3.30;;;1.20;;
50056;SDS011;36875;49.468;11.200;2023-02-20T03:10:12;1.48;;;0.95;;
50056;SDS011;36875;49.468;11.200;2023-02-20T03:12:44;1.60;;;1.20;;
50056;SDS011;36875;49.468;11.200;2023-02-20T03:15:16;1.83;;;0.98;;
50056;SDS011;36875;49.468;11.200;2023-02-20T03:18:04;1.70;;;0.80;;
50056;SDS011;36875;49.468;11.200;2023-02-20T03:20:37;1.35;;;0.90;;
50056;SDS011;36875;49.468;11.200;2023-02-20T03:23:06;1.52;;;1.10;;
50056;SDS011;36875;49.468;11.200;2023-02-20T03:25:38;2.30;;;0.93;;
50056;SDS011;36875;49.468;11.200;2023-02-20T03:28:07;1.75;;;1.15;;
50056;SDS011;36875;49.468;11.200;2023-02-20T03:30:35;1.80;;;1.20;;
50056;SDS011;36875;49.468;11.200;2023-02-20T03:35:52;1.48;;;0.93;;
50056;SDS011;36875;49.468;11.200;2023-02-20T03:38:39;1.00;;;0.73;;
50056;SDS011;36875;49.468;11.200;2023-02-20T03:41:28;1.23;;;0.90;;
50056;SDS011;36875;49.468;11.200;2023-02-20T03:44:16;2.78;;;1.00;;
50056;SDS011;36875;49.468;11.200;2023-02-20T03:46:44;1.27;;;0.90;;
50056;SDS011;36875;49.468;11.200;2023-02-20T03:49:14;1.83;;;0.88;;
50056;SDS011;36875;49.468;11.200;2023-02-20T03:51:44;1.00;;;0.85;;
50056;SDS011;36875;49.468;11.200;2023-02-20T03:54:09;2.05;;;0.95;;
50056;SDS011;36875;49.468;11.200;2023-02-20T03:56:41;1.88;;;0.90;;
50056;SDS011;36875;49.468;11.200;2023-02-20T03:59:17;3.40;;;1.20;;
50056;SDS011;36875;49.468;11.200;2023-02-20T04:01:47;1.60;;;0.90;;
50056;SDS011;36875;49.468;11.200;2023-02-20T04:04:17;0.70;;;0.70;;
50056;SDS011;36875;49.468;11.200;2023-02-20T04:06:47;1.85;;;1.10;;
50056;SDS011;36875;49.468;11.200;2023-02-20T04:09:16;3.47;;;1.00;;
50056;SDS011;36875;49.468;11.200;2023-02-20T04:11:47;0.75;;;0.75;;
50056;SDS011;36875;49.468;11.200;2023-02-20T04:14:17;1.23;;;0.98;;
50056;SDS011;36875;49.468;11.200;2023-02-20T04:16:46;1.33;;;0.85;;
50056;SDS011;36875;49.468;11.200;2023-02-20T04:19:14;1.35;;;0.82;;
50056;SDS011;36875;49.468;11.200;2023-02-20T04:21:40;2.03;;;0.80;;
50056;SDS011;36875;49.468;11.200;2023-02-20T04:24:10;1.23;;;0.88;;
50056;SDS011;36875;49.468;11.200;2023-02-20T04:26:43;1.70;;;0.88;;
50056;SDS011;36875;49.468;11.200;2023-02-20T04:29:11;1.67;;;0.90;;
50056;SDS011;36875;49.468;11.200;2023-02-20T04:31:37;1.35;;;0.98;;
50056;SDS011;36875;49.468;11.200;2023-02-20T04:34:02;1.98;;;1.10;;
50056;SDS011;36875;49.468;11.200;2023-02-20T04:36:28;2.78;;;0.90;;
50056;SDS011;36875;49.468;11.200;2023-02-20T04:38:54;1.27;;;0.80;;
50056;SDS011;36875;49.468;11.200;2023-02-20T04:41:19;5.95;;;1.20;;
50056;SDS011;36875;49.468;11.200;2023-02-20T04:43:44;1.73;;;0.80;;
50056;SDS011;36875;49.468;11.200;2023-02-20T04:46:12;2.10;;;0.85;;
50056;SDS011;36875;49.468;11.200;2023-02-20T04:48:38;1.92;;;1.00;;
50056;SDS011;36875;49.468;11.200;2023-02-20T04:51:04;1.25;;;0.80;;
50056;SDS011;36875;49.468;11.200;2023-02-20T04:53:30;1.45;;;0.90;;
50056;SDS011;36875;49.468;11.200;2023-02-20T04:55:56;1.17;;;0.80;;
50056;SDS011;36875;49.468;11.200;2023-02-20T04:58:21;1.42;;;0.90;;
50056;SDS011;36875;49.468;11.200;2023-02-20T05:00:47;2.45;;;1.00;;
50056;SDS011;36875;49.468;11.200;2023-02-20T05:03:13;1.58;;;1.00;;
50056;SDS011;36875;49.468;11.200;2023-02-20T05:05:39;1.67;;;0.93;;
50056;SDS011;36875;49.468;11.200;2023-02-20T05:08:05;1.42;;;0.90;;
50056;SDS011;36875;49.468;11.200;2023-02-20T05:10:32;1.38;;;1.02;;
50056;SDS011;36875;49.468;11.200;2023-02-20T05:12:58;1.90;;;1.00;;
50056;SDS011;36875;49.468;11.200;2023-02-20T05:15:24;1.02;;;0.90;;
50056;SDS011;36875;49.468;11.200;2023-02-20T05:17:50;2.55;;;0.98;;
50056;SDS011;36875;49.468;11.200;2023-02-20T05:20:17;1.75;;;1.05;;
50056;SDS011;36875;49.468;11.200;2023-02-20T05:22:44;1.50;;;0.80;;
50056;SDS011;36875;49.468;11.200;2023-02-20T05:25:10;1.10;;;0.90;;
50056;SDS011;36875;49.468;11.200;2023-02-20T05:27:36;1.48;;;1.00;;
50056;SDS011;36875;49.468;11.200;2023-02-20T05:30:01;1.58;;;1.00;;
50056;SDS011;36875;49.468;11.200;2023-02-20T05:32:28;2.40;;;0.98;;
50056;SDS011;36875;49.468;11.200;2023-02-20T05:34:54;1.30;;;1.00;;
50056;SDS011;36875;49.468;11.200;2023-02-20T05:37:22;1.23;;;1.00;;
50056;SDS011;36875;49.468;11.200;2023-02-20T05:39:49;2.30;;;1.20;;
50056;SDS011;36875;49.468;11.200;2023-02-20T05:42:15;1.00;;;0.90;;
50056;SDS011;36875;49.468;11.200;2023-02-20T05:44:41;1.67;;;0.90;;
50056;SDS011;36875;49.468;11.200;2023-02-20T05:47:06;1.65;;;0.90;;
50056;SDS011;36875;49.468;11.200;2023-02-20T05:49:32;1.67;;;0.90;;
50056;SDS011;36875;49.468;11.200;2023-02-20T05:51:59;3.08;;;0.93;;
50056;SDS011;36875;49.468;11.200;2023-02-20T05:54:26;1.58;;;0.98;;
50056;SDS011;36875;49.468;11.200;2023-02-20T05:56:52;2.45;;;1.20;;
50056;SDS011;36875;49.468;11.200;2023-02-20T05:59:18;3.47;;;1.42;;
50056;SDS011;36875;49.468;11.200;2023-02-20T06:01:46;3.80;;;1.30;;
50056;SDS011;36875;49.468;11.200;2023-02-20T06:04:11;3.67;;;1.10;;
50056;SDS011;36875;49.468;11.200;2023-02-20T06:06:38;3.88;;;1.08;;
50056;SDS011;36875;49.468;11.200;2023-02-20T06:09:05;4.85;;;1.20;;
50056;SDS011;36875;49.468;11.200;2023-02-20T06:11:38;4.60;;;1.48;;
50056;SDS011;36875;49.468;11.200;2023-02-20T06:14:04;7.82;;;1.48;;
50056;SDS011;36875;49.468;11.200;2023-02-20T06:16:30;3.00;;;1.10;;
50056;SDS011;36875;49.468;11.200;2023-02-20T06:18:56;4.15;;;1.27;;
50056;SDS011;36875;49.468;11.200;2023-02-20T06:21:24;4.68;;;1.50;;
50056;SDS011;36875;49.468;11.200;2023-02-20T06:23:50;2.75;;;1.25;;
50056;SDS011;36875;49.468;11.200;2023-02-20T06:26:19;4.07;;;1.40;;
50056;SDS011;36875;49.468;11.200;2023-02-20T06:28:46;5.25;;;1.10;;
50056;SDS011;36875;49.468;11.200;2023-02-20T06:31:18;5.25;;;1.23;;
50056;SDS011;36875;49.468;11.200;2023-02-20T06:33:46;4.90;;;1.45;;
50056;SDS011;36875;49.468;11.200;2023-02-20T06:36:17;3.17;;;1.42;;
50056;SDS011;36875;49.468;11.200;2023-02-20T06:38:44;6.00;;;1.50;;
50056;SDS011;36875;49.468;11.200;2023-02-20T06:41:10;10.10;;;2.13;;
50056;SDS011;36875;49.468;11.200;2023-02-20T06:43:35;6.28;;;2.05;;
50056;SDS011;36875;49.468;11.200;2023-02-20T06:46:02;14.55;;;2.58;;
50056;SDS011;36875;49.468;11.200;2023-02-20T06:48:27;11.80;;;2.88;;
50056;SDS011;36875;49.468;11.200;2023-02-20T06:50:53;16.77;;;3.28;;
50056;SDS011;36875;49.468;11.200;2023-02-20T06:53:20;13.98;;;3.20;;
50056;SDS011;36875;49.468;11.200;2023-02-20T06:55:45;17.10;;;3.50;;
50056;SDS011;36875;49.468;11.200;2023-02-20T06:58:11;10.93;;;3.03;;
50056;SDS011;36875;49.468;11.200;2023-02-20T07:00:36;12.48;;;2.80;;
50056;SDS011;36875;49.468;11.200;2023-02-20T07:03:03;10.88;;;3.47;;
50056;SDS011;36875;49.468;11.200;2023-02-20T07:05:29;14.20;;;3.17;;
50056;SDS011;36875;49.468;11.200;2023-02-20T07:07:54;14.00;;;3.80;;
50056;SDS011;36875;49.468;11.200;2023-02-20T07:10:20;18.77;;;3.70;;
50056;SDS011;36875;49.468;11.200;2023-02-20T07:12:45;15.90;;;3.28;;
50056;SDS011;36875;49.468;11.200;2023-02-20T07:15:11;11.27;;;2.97;;
50056;SDS011;36875;49.468;11.200;2023-02-20T07:17:36;14.27;;;2.70;;
50056;SDS011;36875;49.468;11.200;2023-02-20T07:20:04;11.57;;;2.95;;
50056;SDS011;36875;49.468;11.200;2023-02-20T07:22:30;17.17;;;3.15;;
50056;SDS011;36875;49.468;11.200;2023-02-20T07:24:56;11.32;;;2.47;;
50056;SDS011;36875;49.468;11.200;2023-02-20T07:27:21;17.63;;;2.72;;
50056;SDS011;36875;49.468;11.200;2023-02-20T07:29:47;8.60;;;2.50;;
50056;SDS011;36875;49.468;11.200;2023-02-20T07:32:14;11.38;;;2.60;;
50056;SDS011;36875;49.468;11.200;2023-02-20T07:34:44;11.33;;;2.40;;
50056;SDS011;36875;49.468;11.200;2023-02-20T07:37:11;13.68;;;2.88;;
50056;SDS011;36875;49.468;11.200;2023-02-20T07:39:37;13.82;;;2.95;;
50056;SDS011;36875;49.468;11.200;2023-02-20T07:42:03;11.02;;;2.72;;
50056;SDS011;36875;49.468;11.200;2023-02-20T07:44:29;10.85;;;2.80;;
50056;SDS011;36875;49.468;11.200;2023-02-20T07:46:54;13.05;;;2.85;;
50056;SDS011;36875;49.468;11.200;2023-02-20T07:49:21;12.43;;;2.60;;
50056;SDS011;36875;49.468;11.200;2023-02-20T07:51:47;11.55;;;3.00;;
50056;SDS011;36875;49.468;11.200;2023-02-20T07:54:14;10.93;;;2.47;;
50056;SDS011;36875;49.468;11.200;2023-02-20T07:56:39;10.85;;;2.47;;
50056;SDS011;36875;49.468;11.200;2023-02-20T07:59:05;10.15;;;2.97;;
50056;SDS011;36875;49.468;11.200;2023-02-20T08:01:30;12.02;;;3.00;;
50056;SDS011;36875;49.468;11.200;2023-02-20T08:03:56;10.20;;;2.30;;
50056;SDS011;36875;49.468;11.200;2023-02-20T08:06:21;12.25;;;2.63;;
50056;SDS011;36875;49.468;11.200;2023-02-20T08:08:47;9.32;;;2.63;;
50056;SDS011;36875;49.468;11.200;2023-02-20T08:11:15;11.10;;;2.42;;
50056;SDS011;36875;49.468;11.200;2023-02-20T08:13:41;7.90;;;2.55;;
50056;SDS011;36875;49.468;11.200;2023-02-20T08:16:08;13.27;;;2.55;;
50056;SDS011;36875;49.468;11.200;2023-02-20T08:18:33;10.85;;;3.10;;
50056;SDS011;36875;49.468;11.200;2023-02-20T08:20:59;7.28;;;2.10;;
50056;SDS011;36875;49.468;11.200;2023-02-20T08:23:24;9.15;;;2.00;;
50056;SDS011;36875;49.468;11.200;2023-02-20T08:25:50;11.05;;;2.63;;
50056;SDS011;36875;49.468;11.200;2023-02-20T08:28:17;18.10;;;2.75;;
50056;SDS011;36875;49.468;11.200;2023-02-20T08:30:43;10.35;;;2.50;;
50056;SDS011;36875;49.468;11.200;2023-02-20T08:33:08;6.75;;;2.10;;
50056;SDS011;36875;49.468;11.200;2023-02-20T08:35:34;9.40;;;2.28;;
50056;SDS011;36875;49.468;11.200;2023-02-20T08:38:00;13.13;;;2.47;;
50056;SDS011;36875;49.468;11.200;2023-02-20T08:40:26;9.13;;;2.13;;
50056;SDS011;36875;49.468;11.200;2023-02-20T08:42:51;10.93;;;2.25;;
50056;SDS011;36875;49.468;11.200;2023-02-20T08:45:18;8.98;;;2.10;;
50056;SDS011;36875;49.468;11.200;2023-02-20T08:47:44;12.32;;;2.10;;
50056;SDS011;36875;49.468;11.200;2023-02-20T08:50:09;7.93;;;2.30;;
50056;SDS011;36875;49.468;11.200;2023-02-20T08:52:35;9.90;;;1.98;;
50056;SDS011;36875;49.468;11.200;2023-02-20T08:55:00;5.25;;;2.00;;
50056;SDS011;36875;49.468;11.200;2023-02-20T08:57:26;12.50;;;2.63;;
50056;SDS011;36875;49.468;11.200;2023-02-20T08:59:52;9.73;;;1.95;;
50056;SDS011;36875;49.468;11.200;2023-02-20T09:02:21;10.18;;;2.20;;
50056;SDS011;36875;49.468;11.200;2023-02-20T09:04:53;7.03;;;2.22;;
50056;SDS011;36875;49.468;11.200;2023-02-20T09:07:19;11.23;;;2.20;;
50056;SDS011;36875;49.468;11.200;2023-02-20T09:09:45;6.63;;;1.90;;
50056;SDS011;36875;49.468;11.200;2023-02-20T09:12:10;8.38;;;1.83;;
50056;SDS011;36875;49.468;11.200;2023-02-20T09:14:36;8.02;;;2.30;;
50056;SDS011;36875;49.468;11.200;2023-02-20T09:17:02;10.45;;;2.33;;
50056;SDS011;36875;49.468;11.200;2023-02-20T09:19:30;8.07;;;2.00;;
50056;SDS011;36875;49.468;11.200;2023-02-20T09:21:56;6.18;;;2.35;;
50056;SDS011;36875;49.468;11.200;2023-02-20T09:24:21;7.13;;;2.65;;
50056;SDS011;36875;49.468;11.200;2023-02-20T09:26:47;6.60;;;2.00;;
50056;SDS011;36875;49.468;11.200;2023-02-20T09:29:13;6.68;;;1.70;;
50056;SDS011;36875;49.468;11.200;2023-02-20T09:31:38;7.75;;;1.98;;
50056;SDS011;36875;49.468;11.200;2023-02-20T09:34:04;7.63;;;1.80;;
50056;SDS011;36875;49.468;11.200;2023-02-20T09:36:30;5.63;;;1.80;;
50056;SDS011;36875;49.468;11.200;2023-02-20T09:38:56;5.97;;;1.60;;
50056;SDS011;36875;49.468;11.200;2023-02-20T09:41:25;6.25;;;1.95;;
50056;SDS011;36875;49.468;11.200;2023-02-20T09:44:01;6.75;;;1.52;;
50056;SDS011;36875;49.468;11.200;2023-02-20T09:46:31;5.53;;;1.55;;
50056;SDS011;36875;49.468;11.200;2023-02-20T09:48:59;3.63;;;1.63;;
50056;SDS011;36875;49.468;11.200;2023-02-20T09:51:30;5.53;;;1.90;;
50056;SDS011;36875;49.468;11.200;2023-02-20T09:54:00;5.18;;;1.70;;
50056;SDS011;36875;49.468;11.200;2023-02-20T09:56:30;5.70;;;1.70;;
50056;SDS011;36875;49.468;11.200;2023-02-20T09:58:59;5.20;;;1.52;;
50056;SDS011;36875;49.468;11.200;2023-02-20T10:01:31;4.40;;;1.70;;
50056;SDS011;36875;49.468;11.200;2023-02-20T10:03:59;32.97;;;26.20;;
50056;SDS011;36875;49.468;11.200;2023-02-20T10:06:29;7.72;;;4.30;;
50056;SDS011;36875;49.468;11.200;2023-02-20T10:08:58;10.38;;;3.65;;
50056;SDS011;36875;49.468;11.200;2023-02-20T10:11:32;5.43;;;3.38;;
50056;SDS011;36875;49.468;11.200;2023-02-20T10:14:12;6.93;;;3.53;;
50056;SDS011;36875;49.468;11.200;2023-02-20T10:16:50;7.00;;;3.55;;
50056;SDS011;36875;49.468;11.200;2023-02-20T10:19:24;6.32;;;3.80;;
50056;SDS011;36875;49.468;11.200;2023-02-20T10:22:01;6.18;;;3.13;;
50056;SDS011;36875;49.468;11.200;2023-02-20T10:24:35;6.35;;;3.17;;
50056;SDS011;36875;49.468;11.200;2023-02-20T10:27:20;5.90;;;3.20;;
50056;SDS011;36875;49.468;11.200;2023-02-20T10:29:53;7.10;;;3.03;;
50056;SDS011;36875;49.468;11.200;2023-02-20T10:32:19;5.20;;;2.83;;
50056;SDS011;36875;49.468;11.200;2023-02-20T10:34:50;7.80;;;2.92;;
50056;SDS011;36875;49.468;11.200;2023-02-20T10:37:23;6.25;;;2.80;;
50056;SDS011;36875;49.468;11.200;2023-02-20T10:39:53;6.50;;;2.70;;
50056;SDS011;36875;49.468;11.200;2023-02-20T10:44:53;4.97;;;2.63;;
50056;SDS011;36875;49.468;11.200;2023-02-20T10:47:23;7.10;;;2.65;;
50056;SDS011;36875;49.468;11.200;2023-02-20T10:49:55;4.82;;;2.47;;
50056;SDS011;36875;49.468;11.200;2023-02-20T10:52:27;5.70;;;2.53;;
50056;SDS011;36875;49.468;11.200;2023-02-20T10:54:59;3.58;;;2.10;;
50056;SDS011;36875;49.468;11.200;2023-02-20T10:57:33;4.97;;;2.30;;
50056;SDS011;36875;49.468;11.200;2023-02-20T11:00:06;3.03;;;1.90;;
50056;SDS011;36875;49.468;11.200;2023-02-20T11:02:36;5.97;;;2.05;;
50056;SDS011;36875;49.468;11.200;2023-02-20T11:05:06;4.82;;;2.25;;
50056;SDS011;36875;49.468;11.200;2023-02-20T11:07:36;3.90;;;1.80;;
50056;SDS011;36875;49.468;11.200;2023-02-20T11:10:02;5.13;;;2.00;;
50056;SDS011;36875;49.468;11.200;2023-02-20T11:12:29;7.13;;;2.10;;
50056;SDS011;36875;49.468;11.200;2023-02-20T11:14:59;5.30;;;1.92;;
50056;SDS011;36875;49.468;11.200;2023-02-20T11:17:30;4.38;;;1.80;;
50056;SDS011;36875;49.468;11.200;2023-02-20T11:19:58;3.10;;;1.73;;
50056;SDS011;36875;49.468;11.200;2023-02-20T11:22:39;5.20;;;1.90;;
50056;SDS011;36875;49.468;11.200;2023-02-20T11:25:13;4.57;;;1.88;;
50056;SDS011;36875;49.468;11.200;2023-02-20T11:27:41;3.85;;;1.80;;
50056;SDS011;36875;49.468;11.200;2023-02-20T11:30:15;3.33;;;1.85;;
50056;SDS011;36875;49.468;11.200;2023-02-20T11:32:48;3.63;;;1.98;;
50056;SDS011;36875;49.468;11.200;2023-02-20T11:35:24;3.25;;;1.73;;
50056;SDS011;36875;49.468;11.200;2023-02-20T11:41:06;2.92;;;1.70;;
50056;SDS011;36875;49.468;11.200;2023-02-20T11:43:42;4.95;;;1.92;;
50056;SDS011;36875;49.468;11.200;2023-02-20T11:46:11;3.58;;;1.90;;
50056;SDS011;36875;49.468;11.200;2023-02-20T11:48:43;3.70;;;1.40;;
50056;SDS011;36875;49.468;11.200;2023-02-20T11:51:29;3.92;;;1.50;;
50056;SDS011;36875;49.468;11.200;2023-02-20T11:54:05;4.70;;;2.10;;
50056;SDS011;36875;49.468;11.200;2023-02-20T11:56:33;3.55;;;1.50;;
50056;SDS011;36875;49.468;11.200;2023-02-20T11:59:12;3.20;;;1.15;;
50056;SDS011;36875;49.468;11.200;2023-02-20T12:01:49;2.88;;;1.35;;
50056;SDS011;36875;49.468;11.200;2023-02-20T12:04:17;4.65;;;1.40;;
50056;SDS011;36875;49.468;11.200;2023-02-20T12:06:44;5.85;;;1.58;;
50056;SDS011;36875;49.468;11.200;2023-02-20T12:09:10;4.63;;;1.60;;
50056;SDS011;36875;49.468;11.200;2023-02-20T12:11:40;5.53;;;1.50;;
50056;SDS011;36875;49.468;11.200;2023-02-20T12:14:08;4.53;;;1.50;;
50056;SDS011;36875;49.468;11.200;2023-02-20T12:19:12;2.83;;;1.13;;
50056;SDS011;36875;49.468;11.200;2023-02-20T12:21:48;5.45;;;1.50;;
50056;SDS011;36875;49.468;11.200;2023-02-20T12:24:36;3.92;;;1.45;;
50056;SDS011;36875;49.468;11.200;2023-02-20T12:27:17;3.38;;;1.50;;
50056;SDS011;36875;49.468;11.200;2023-02-20T12:29:58;6.15;;;1.60;;
50056;SDS011;36875;49.468;11.200;2023-02-20T12:32:38;4.97;;;1.38;;
50056;SDS011;36875;49.468;11.200;2023-02-20T12:37:52;5.47;;;1.50;;
50056;SDS011;36875;49.468;11.200;2023-02-20T12:40:34;6.28;;;1.20;;
50056;SDS011;36875;49.468;11.200;2023-02-20T12:43:13;5.03;;;1.25;;
50056;SDS011;36875;49.468;11.200;2023-02-20T12:45:51;3.20;;;1.30;;
50056;SDS011;36875;49.468;11.200;2023-02-20T12:48:30;5.07;;;1.25;;
50056;SDS011;36875;49.468;11.200;2023-02-20T12:51:10;6.72;;;1.55;;
50056;SDS011;36875;49.468;11.200;2023-02-20T12:53:47;5.47;;;1.83;;
50056;SDS011;36875;49.468;11.200;2023-02-20T12:56:25;4.20;;;1.40;;
50056;SDS011;36875;49.468;11.200;2023-02-20T12:59:05;3.95;;;1.50;;
50056;SDS011;36875;49.468;11.200;2023-02-20T13:01:40;8.52;;;1.70;;
50056;SDS011;36875;49.468;11.200;2023-02-20T13:04:09;4.97;;;1.77;;
50056;SDS011;36875;49.468;11.200;2023-02-20T13:06:50;3.28;;;1.15;;
50056;SDS011;36875;49.468;11.200;2023-02-20T13:09:22;4.15;;;1.38;;
50056;SDS011;36875;49.468;11.200;2023-02-20T13:11:50;6.53;;;1.33;;
50056;SDS011;36875;49.468;11.200;2023-02-20T13:14:28;3.65;;;1.30;;
50056;SDS011;36875;49.468;11.200;2023-02-20T13:17:05;2.72;;;1.00;;
50056;SDS011;36875;49.468;11.200;2023-02-20T13:19:39;3.72;;;1.15;;
50056;SDS011;36875;49.468;11.200;2023-02-20T13:22:09;3.17;;;1.08;;
50056;SDS011;36875;49.468;11.200;2023-02-20T13:24:35;4.03;;;1.02;;
50056;SDS011;36875;49.468;11.200;2023-02-20T13:27:03;2.58;;;1.15;;
50056;SDS011;36875;49.468;11.200;2023-02-20T13:29:34;2.85;;;0.80;;
50056;SDS011;36875;49.468;11.200;2023-02-20T13:32:02;2.72;;;1.23;;
50056;SDS011;36875;49.468;11.200;2023-02-20T13:34:46;2.78;;;1.15;;
50056;SDS011;36875;49.468;11.200;2023-02-20T13:48:46;3.55;;;1.20;;
50056;SDS011;36875;49.468;11.200;2023-02-20T13:51:32;5.90;;;1.30;;
50056;SDS011;36875;49.468;11.200;2023-02-20T13:56:52;2.58;;;0.95;;
50056;SDS011;36875;49.468;11.200;2023-02-20T13:59:23;3.63;;;1.10;;
50056;SDS011;36875;49.468;11.200;2023-02-20T14:04:46;6.95;;;1.10;;
50056;SDS011;36875;49.468;11.200;2023-02-20T14:07:25;5.47;;;1.60;;
50056;SDS011;36875;49.468;11.200;2023-02-20T14:09:58;4.25;;;1.08;;
50056;SDS011;36875;49.468;11.200;2023-02-20T14:12:24;7.80;;;1.13;;
50056;SDS011;36875;49.468;11.200;2023-02-20T14:14:50;6.43;;;1.13;;
50056;SDS011;36875;49.468;11.200;2023-02-20T14:17:17;6.15;;;1.50;;
50056;SDS011;36875;49.468;11.200;2023-02-20T14:19:46;8.13;;;1.65;;
50056;SDS011;36875;49.468;11.200;2023-02-20T14:22:22;8.15;;;1.70;;
50056;SDS011;36875;49.468;11.200;2023-02-20T14:25:14;7.55;;;1.58;;
50056;SDS011;36875;49.468;11.200;2023-02-20T14:27:44;8.07;;;1.13;;
50056;SDS011;36875;49.468;11.200;2023-02-20T14:30:11;5.10;;;1.30;;
50056;SDS011;36875;49.468;11.200;2023-02-20T14:32:40;5.38;;;1.30;;
50056;SDS011;36875;49.468;11.200;2023-02-20T14:35:10;5.88;;;1.13;;
50056;SDS011;36875;49.468;11.200;2023-02-20T14:37:42;3.58;;;1.20;;
50056;SDS011;36875;49.468;11.200;2023-02-20T14:40:15;4.65;;;1.40;;
50056;SDS011;36875;49.468;11.200;2023-02-20T14:42:43;4.60;;;1.10;;
50056;SDS011;36875;49.468;11.200;2023-02-20T14:45:13;5.60;;;1.25;;
50056;SDS011;36875;49.468;11.200;2023-02-20T14:47:48;3.20;;;1.10;;
50056;SDS011;36875;49.468;11.200;2023-02-20T14:50:18;5.20;;;1.15;;
50056;SDS011;36875;49.468;11.200;2023-02-20T14:52:45;7.50;;;1.30;;
50056;SDS011;36875;49.468;11.200;2023-02-20T14:55:15;3.80;;;1.10;;
50056;SDS011;36875;49.468;11.200;2023-02-20T14:57:42;3.72;;;1.20;;
50056;SDS011;36875;49.468;11.200;2023-02-20T15:00:09;5.60;;;1.00;;
50056;SDS011;36875;49.468;11.200;2023-02-20T15:02:46;3.35;;;0.95;;
50056;SDS011;36875;49.468;11.200;2023-02-20T15:05:17;4.63;;;1.45;;
50056;SDS011;36875;49.468;11.200;2023-02-20T15:07:50;2.03;;;0.80;;
50056;SDS011;36875;49.468;11.200;2023-02-20T15:13:04;5.47;;;1.10;;
50056;SDS011;36875;49.468;11.200;2023-02-20T15:15:33;2.85;;;1.00;;
50056;SDS011;36875;49.468;11.200;2023-02-20T15:18:09;3.03;;;1.02;;
50056;SDS011;36875;49.468;11.200;2023-02-20T15:23:10;2.83;;;0.90;;
50056;SDS011;36875;49.468;11.200;2023-02-20T15:25:47;3.92;;;0.95;;
50056;SDS011;36875;49.468;11.200;2023-02-20T15:28:22;2.63;;;0.93;;